sensor_id;sensor_type;location;lat;lon;timestamp;temperature;humidity
3406;DHT22;10008;48.682;9.016;2024-03-25T00:00:40;4.70;99.90
3406;DHT22;10008;48.682;9.016;2024-03-25T00:03:06;4.80;99.90
3406;DHT22;10008;48.682;9.016;2024-03-25T00:05:31;4.70;99.90
3406;DHT22;10008;48.682;9.016;2024-03-25T00:07:58;4.70;99.90
3406;DHT22;10008;48.682;9.016;2024-03-25T00:10:24;4.70;99.90
3406;DHT22;10008;48.682;9.016;2024-03-25T00:12:50;4.60;99.90
3406;DHT22;10008;48.682;9.016;2024-03-25T00:15:20;4.60;99.90
3406;DHT22;10008;48.682;9.016;2024-03-25T00:17:49;4.60;99.90
3406;DHT22;10008;48.682;9.016;2024-03-25T00:20:15;4.50;99.90
3406;DHT22;10008;48.682;9.016;2024-03-25T00:22:41;4.50;99.90
3406;DHT22;10008;48.682;9.016;2024-03-25T00:25:07;4.50;99.90
3406;DHT22;10008;48.682;9.016;2024-03-25T00:27:34;4.40;99.90
3406;DHT22;10008;48.682;9.016;2024-03-25T00:29:59;4.40;99.90
3406;DHT22;10008;48.682;9.016;2024-03-25T00:32:25;4.40;99.90
3406;DHT22;10008;48.682;9.016;2024-03-25T00:34:51;4.40;99.90
3406;DHT22;10008;48.682;9.016;2024-03-25T00:37:17;4.40;99.90
3406;DHT22;10008;48.682;9.016;2024-03-25T00:39:42;4.30;99.90
3406;DHT22;10008;48.682;9.016;2024-03-25T00:42:08;4.30;99.90
3406;DHT22;10008;48.682;9.016;2024-03-25T00:44:34;4.30;99.90
3406;DHT22;10008;48.682;9.016;2024-03-25T00:46:59;4.40;99.90
3406;DHT22;10008;48.682;9.016;2024-03-25T00:49:25;4.30;99.90
3406;DHT22;10008;48.682;9.016;2024-03-25T00:51:51;4.30;99.90
3406;DHT22;10008;48.682;9.016;2024-03-25T00:54:17;4.40;99.90
3406;DHT22;10008;48.682;9.016;2024-03-25T00:56:43;4.40;99.90
3406;DHT22;10008;48.682;9.016;2024-03-25T00:59:09;4.50;99.90
3406;DHT22;10008;48.682;9.016;2024-03-25T01:01:35;4.40;99.90
3406;DHT22;10008;48.682;9.016;2024-03-25T01:04:04;4.40;99.90
3406;DHT22;10008;48.682;9.016;2024-03-25T01:06:30;4.40;99.90
3406;DHT22;10008;48.682;9.016;2024-03-25T01:08:56;4.40;99.90
3406;DHT22;10008;48.682;9.016;2024-03-25T01:11:21;4.40;99.90
3406;DHT22;10008;48.682;9.016;2024-03-25T01:13:48;4.40;99.90
3406;DHT22;10008;48.682;9.016;2024-03-25T01:16:14;4.40;99.90
3406;DHT22;10008;48.682;9.016;2024-03-25T01:18:40;4.40;99.90
3406;DHT22;10008;48.682;9.016;2024-03-25T01:21:06;4.50;99.90
3406;DHT22;10008;48.682;9.016;2024-03-25T01:23:31;4.50;99.90
3406;DHT22;10008;48.682;9.016;2024-03-25T01:25:57;4.60;99.90
3406;DHT22;10008;48.682;9.016;2024-03-25T01:28:23;4.60;99.90
3406;DHT22;10008;48.682;9.016;2024-03-25T01:30:49;4.70;99.90
3406;DHT22;10008;48.682;9.016;2024-03-25T01:33:15;4.70;99.90
3406;DHT22;10008;48.682;9.016;2024-03-25T01:35:41;4.60;99.90
3406;DHT22;10008;48.682;9.016;2024-03-25T01:38:07;4.60;99.90
3406;DHT22;10008;48.682;9.016;2024-03-25T01:40:33;4.60;99.90
3406;DHT22;10008;48.682;9.016;2024-03-25T01:43:01;4.50;99.90
3406;DHT22;10008;48.682;9.016;2024-03-25T01:45:29;4.60;99.90
3406;DHT22;10008;48.682;9.016;2024-03-25T01:47:57;4.60;99.90
3406;DHT22;10008;48.682;9.016;2024-03-25T01:50:23;4.60;99.90
3406;DHT22;10008;48.682;9.016;2024-03-25T01:52:49;4.60;99.90
3406;DHT22;10008;48.682;9.016;2024-03-25T01:55:18;4.60;99.90
3406;DHT22;10008;48.682;9.016;2024-03-25T01:57:46;4.50;99.90
3406;DHT22;10008;48.682;9.016;2024-03-25T02:00:13;4.50;99.90
3406;DHT22;10008;48.682;9.016;2024-03-25T02:02:48;4.50;99.90
3406;DHT22;10008;48.682;9.016;2024-03-25T02:05:18;4.40;99.90
3406;DHT22;10008;48.682;9.016;2024-03-25T02:07:44;4.60;99.90
3406;DHT22;10008;48.682;9.016;2024-03-25T02:10:11;4.50;99.90
3406;DHT22;10008;48.682;9.016;2024-03-25T02:12:44;4.50;99.90
3406;DHT22;10008;48.682;9.016;2024-03-25T02:15:11;4.40;99.90
3406;DHT22;10008;48.682;9.016;2024-03-25T02:17:37;4.50;99.90
3406;DHT22;10008;48.682;9.016;2024-03-25T02:20:04;4.70;99.90
3406;DHT22;10008;48.682;9.016;2024-03-25T02:22:36;4.70;99.90
3406;DHT22;10008;48.682;9.016;2024-03-25T02:25:06;4.70;99.90
3406;DHT22;10008;48.682;9.016;2024-03-25T02:27:36;4.60;99.90
3406;DHT22;10008;48.682;9.016;2024-03-25T02:30:07;4.60;99.90
3406;DHT22;10008;48.682;9.016;2024-03-25T02:32:34;4.60;99.90
3406;DHT22;10008;48.682;9.016;2024-03-25T02:35:02;4.60;99.90
3406;DHT22;10008;48.682;9.016;2024-03-25T02:37:29;4.60;99.90
3406;DHT22;10008;48.682;9.016;2024-03-25T02:39:57;4.50;99.90
3406;DHT22;10008;48.682;9.016;2024-03-25T02:42:25;4.50;99.90
3406;DHT22;10008;48.682;9.016;2024-03-25T02:44:55;4.50;99.90
3406;DHT22;10008;48.682;9.016;2024-03-25T02:47:21;4.50;99.90
3406;DHT22;10008;48.682;9.016;2024-03-25T02:49:47;4.70;99.90
3406;DHT22;10008;48.682;9.016;2024-03-25T02:52:13;4.60;99.90
3406;DHT22;10008;48.682;9.016;2024-03-25T02:54:39;4.50;99.90
3406;DHT22;10008;48.682;9.016;2024-03-25T02:57:05;4.60;99.90
3406;DHT22;10008;48.682;9.016;2024-03-25T02:59:30;4.60;99.90
3406;DHT22;10008;48.682;9.016;2024-03-25T03:01:56;4.80;99.90
3406;DHT22;10008;48.682;9.016;2024-03-25T03:04:22;4.60;99.90
3406;DHT22;10008;48.682;9.016;2024-03-25T03:06:48;4.50;99.90
3406;DHT22;10008;48.682;9.016;2024-03-25T03:09:13;4.50;99.90
3406;DHT22;10008;48.682;9.016;2024-03-25T03:11:39;4.70;99.90
3406;DHT22;10008;48.682;9.016;2024-03-25T03:14:05;4.40;99.90
3406;DHT22;10008;48.682;9.016;2024-03-25T03:16:31;4.50;99.90
3406;DHT22;10008;48.682;9.016;2024-03-25T03:18:57;4.40;99.90
3406;DHT22;10008;48.682;9.016;2024-03-25T03:21:22;4.40;99.90
3406;DHT22;10008;48.682;9.016;2024-03-25T03:23:48;4.50;99.90
3406;DHT22;10008;48.682;9.016;2024-03-25T03:26:14;4.50;99.90
3406;DHT22;10008;48.682;9.016;2024-03-25T03:28:40;4.40;99.90
3406;DHT22;10008;48.682;9.016;2024-03-25T03:31:06;4.50;99.90
3406;DHT22;10008;48.682;9.016;2024-03-25T03:33:32;4.40;99.90
3406;DHT22;10008;48.682;9.016;2024-03-25T03:35:58;4.30;99.90
3406;DHT22;10008;48.682;9.016;2024-03-25T03:38:24;4.40;99.90
3406;DHT22;10008;48.682;9.016;2024-03-25T03:40:59;4.40;99.90
3406;DHT22;10008;48.682;9.016;2024-03-25T03:43:25;4.40;99.90
3406;DHT22;10008;48.682;9.016;2024-03-25T03:45:51;4.40;99.90
3406;DHT22;10008;48.682;9.016;2024-03-25T03:48:17;4.40;99.90
3406;DHT22;10008;48.682;9.016;2024-03-25T03:50:43;4.40;99.90
3406;DHT22;10008;48.682;9.016;2024-03-25T03:53:09;4.40;99.90
3406;DHT22;10008;48.682;9.016;2024-03-25T03:55:35;4.40;99.90
3406;DHT22;10008;48.682;9.016;2024-03-25T03:58:01;4.50;99.90
3406;DHT22;10008;48.682;9.016;2024-03-25T04:00:27;4.50;99.90
3406;DHT22;10008;48.682;9.016;2024-03-25T04:02:53;4.50;99.90
3406;DHT22;10008;48.682;9.016;2024-03-25T04:05:19;4.60;99.90
3406;DHT22;10008;48.682;9.016;2024-03-25T04:07:45;4.50;99.90
3406;DHT22;10008;48.682;9.016;2024-03-25T04:10:10;4.90;99.90
3406;DHT22;10008;48.682;9.016;2024-03-25T04:12:37;4.50;99.90
3406;DHT22;10008;48.682;9.016;2024-03-25T04:15:03;4.50;99.90
3406;DHT22;10008;48.682;9.016;2024-03-25T04:17:29;4.50;99.90
3406;DHT22;10008;48.682;9.016;2024-03-25T04:19:55;4.60;99.90
3406;DHT22;10008;48.682;9.016;2024-03-25T04:22:23;4.50;99.90
3406;DHT22;10008;48.682;9.016;2024-03-25T04:24:49;4.50;99.90
3406;DHT22;10008;48.682;9.016;2024-03-25T04:27:15;4.80;99.90
3406;DHT22;10008;48.682;9.016;2024-03-25T04:29:41;4.50;99.90
3406;DHT22;10008;48.682;9.016;2024-03-25T04:32:06;4.50;99.90
3406;DHT22;10008;48.682;9.016;2024-03-25T04:34:34;4.40;99.90
3406;DHT22;10008;48.682;9.016;2024-03-25T04:36:59;4.40;99.90
3406;DHT22;10008;48.682;9.016;2024-03-25T04:39:25;4.40;99.90
3406;DHT22;10008;48.682;9.016;2024-03-25T04:41:51;4.40;99.90
3406;DHT22;10008;48.682;9.016;2024-03-25T04:44:17;4.30;99.90
3406;DHT22;10008;48.682;9.016;2024-03-25T04:46:43;4.30;99.90
3406;DHT22;10008;48.682;9.016;2024-03-25T04:49:10;4.30;99.90
3406;DHT22;10008;48.682;9.016;2024-03-25T04:51:36;4.20;99.90
3406;DHT22;10008;48.682;9.016;2024-03-25T04:54:02;4.20;99.90
3406;DHT22;10008;48.682;9.016;2024-03-25T04:56:27;4.30;99.90
3406;DHT22;10008;48.682;9.016;2024-03-25T04:58:53;4.30;99.90
3406;DHT22;10008;48.682;9.016;2024-03-25T05:01:19;4.20;99.90
3406;DHT22;10008;48.682;9.016;2024-03-25T05:03:45;4.20;99.90
3406;DHT22;10008;48.682;9.016;2024-03-25T05:06:11;4.20;99.90
3406;DHT22;10008;48.682;9.016;2024-03-25T05:08:37;4.10;99.90
3406;DHT22;10008;48.682;9.016;2024-03-25T05:11:02;4.10;99.90
3406;DHT22;10008;48.682;9.016;2024-03-25T05:13:28;4.00;99.90
3406;DHT22;10008;48.682;9.016;2024-03-25T05:15:54;3.90;99.90
3406;DHT22;10008;48.682;9.016;2024-03-25T05:18:19;3.90;99.90
3406;DHT22;10008;48.682;9.016;2024-03-25T05:20:45;3.90;99.90
3406;DHT22;10008;48.682;9.016;2024-03-25T05:23:11;4.00;99.90
3406;DHT22;10008;48.682;9.016;2024-03-25T05:25:37;4.00;99.90
3406;DHT22;10008;48.682;9.016;2024-03-25T05:28:04;4.00;99.90
3406;DHT22;10008;48.682;9.016;2024-03-25T05:30:30;4.10;99.90
3406;DHT22;10008;48.682;9.016;2024-03-25T05:32:56;4.10;99.90
3406;DHT22;10008;48.682;9.016;2024-03-25T05:35:21;4.30;99.90
3406;DHT22;10008;48.682;9.016;2024-03-25T05:37:47;4.20;99.90
3406;DHT22;10008;48.682;9.016;2024-03-25T05:40:13;4.20;99.90
3406;DHT22;10008;48.682;9.016;2024-03-25T05:42:40;4.40;99.90
3406;DHT22;10008;48.682;9.016;2024-03-25T05:45:06;4.30;99.90
3406;DHT22;10008;48.682;9.016;2024-03-25T05:47:34;4.40;99.90
3406;DHT22;10008;48.682;9.016;2024-03-25T05:50:00;4.30;99.90
3406;DHT22;10008;48.682;9.016;2024-03-25T05:52:28;4.30;99.90
3406;DHT22;10008;48.682;9.016;2024-03-25T05:54:54;4.30;99.90
3406;DHT22;10008;48.682;9.016;2024-03-25T05:57:20;4.40;99.90
3406;DHT22;10008;48.682;9.016;2024-03-25T05:59:46;4.50;99.90
3406;DHT22;10008;48.682;9.016;2024-03-25T06:02:11;4.50;99.90
3406;DHT22;10008;48.682;9.016;2024-03-25T06:04:37;4.50;99.90
3406;DHT22;10008;48.682;9.016;2024-03-25T06:07:03;4.60;99.90
3406;DHT22;10008;48.682;9.016;2024-03-25T06:09:29;4.60;99.90
3406;DHT22;10008;48.682;9.016;2024-03-25T06:11:56;4.70;99.90
3406;DHT22;10008;48.682;9.016;2024-03-25T06:14:22;4.60;99.90
3406;DHT22;10008;48.682;9.016;2024-03-25T06:16:47;4.60;99.90
3406;DHT22;10008;48.682;9.016;2024-03-25T06:19:14;4.60;99.90
3406;DHT22;10008;48.682;9.016;2024-03-25T06:21:39;4.60;99.90
3406;DHT22;10008;48.682;9.016;2024-03-25T06:24:05;4.70;99.90
3406;DHT22;10008;48.682;9.016;2024-03-25T06:26:31;4.70;99.90
3406;DHT22;10008;48.682;9.016;2024-03-25T06:28:57;4.80;99.90
3406;DHT22;10008;48.682;9.016;2024-03-25T06:31:22;4.80;99.90
3406;DHT22;10008;48.682;9.016;2024-03-25T06:34:07;4.80;99.90
3406;DHT22;10008;48.682;9.016;2024-03-25T06:36:47;4.80;99.90
3406;DHT22;10008;48.682;9.016;2024-03-25T06:39:14;5.10;99.90
3406;DHT22;10008;48.682;9.016;2024-03-25T06:41:41;4.90;99.90
3406;DHT22;10008;48.682;9.016;2024-03-25T06:44:07;4.90;99.90
3406;DHT22;10008;48.682;9.016;2024-03-25T06:46:34;4.90;99.90
3406;DHT22;10008;48.682;9.016;2024-03-25T06:48:59;5.00;99.90
3406;DHT22;10008;48.682;9.016;2024-03-25T06:51:25;5.10;99.90
3406;DHT22;10008;48.682;9.016;2024-03-25T06:53:52;5.20;99.90
3406;DHT22;10008;48.682;9.016;2024-03-25T06:56:18;5.20;99.90
3406;DHT22;10008;48.682;9.016;2024-03-25T06:58:43;5.40;99.90
3406;DHT22;10008;48.682;9.016;2024-03-25T07:01:09;5.60;99.90
3406;DHT22;10008;48.682;9.016;2024-03-25T07:03:38;5.80;99.90
3406;DHT22;10008;48.682;9.016;2024-03-25T07:06:04;6.00;99.90
3406;DHT22;10008;48.682;9.016;2024-03-25T07:08:31;6.10;99.90
3406;DHT22;10008;48.682;9.016;2024-03-25T07:10:57;6.10;99.90
3406;DHT22;10008;48.682;9.016;2024-03-25T07:13:23;6.20;99.90
3406;DHT22;10008;48.682;9.016;2024-03-25T07:15:50;6.10;99.90
3406;DHT22;10008;48.682;9.016;2024-03-25T07:18:16;6.20;99.90
3406;DHT22;10008;48.682;9.016;2024-03-25T07:20:43;6.10;99.90
3406;DHT22;10008;48.682;9.016;2024-03-25T07:23:09;6.10;99.90
3406;DHT22;10008;48.682;9.016;2024-03-25T07:25:35;6.40;99.90
3406;DHT22;10008;48.682;9.016;2024-03-25T07:28:01;7.20;99.90
3406;DHT22;10008;48.682;9.016;2024-03-25T07:30:28;8.10;99.90
3406;DHT22;10008;48.682;9.016;2024-03-25T07:32:58;8.80;99.90
3406;DHT22;10008;48.682;9.016;2024-03-25T07:35:25;9.30;99.90
3406;DHT22;10008;48.682;9.016;2024-03-25T07:37:51;9.50;99.90
3406;DHT22;10008;48.682;9.016;2024-03-25T07:40:21;9.80;99.90
3406;DHT22;10008;48.682;9.016;2024-03-25T07:42:48;10.90;99.90
3406;DHT22;10008;48.682;9.016;2024-03-25T07:45:15;11.50;99.40
3406;DHT22;10008;48.682;9.016;2024-03-25T07:47:41;12.00;96.70
3406;DHT22;10008;48.682;9.016;2024-03-25T07:50:07;12.00;96.30
3406;DHT22;10008;48.682;9.016;2024-03-25T07:52:33;11.80;96.10
3406;DHT22;10008;48.682;9.016;2024-03-25T07:55:02;11.40;95.60
3406;DHT22;10008;48.682;9.016;2024-03-25T07:57:27;11.00;96.00
3406;DHT22;10008;48.682;9.016;2024-03-25T07:59:53;11.50;95.50
3406;DHT22;10008;48.682;9.016;2024-03-25T08:02:19;11.80;94.80
3406;DHT22;10008;48.682;9.016;2024-03-25T08:04:45;12.60;94.20
3406;DHT22;10008;48.682;9.016;2024-03-25T08:07:10;12.50;93.50
3406;DHT22;10008;48.682;9.016;2024-03-25T08:09:36;12.30;93.50
3406;DHT22;10008;48.682;9.016;2024-03-25T08:12:02;11.70;94.10
3406;DHT22;10008;48.682;9.016;2024-03-25T08:14:27;12.30;94.50
3406;DHT22;10008;48.682;9.016;2024-03-25T08:16:53;12.50;92.00
3406;DHT22;10008;48.682;9.016;2024-03-25T08:19:19;13.70;92.50
3406;DHT22;10008;48.682;9.016;2024-03-25T08:21:45;14.60;90.10
3406;DHT22;10008;48.682;9.016;2024-03-25T08:24:10;14.40;87.40
3406;DHT22;10008;48.682;9.016;2024-03-25T08:26:37;14.20;82.70
3406;DHT22;10008;48.682;9.016;2024-03-25T08:29:03;13.50;84.90
3406;DHT22;10008;48.682;9.016;2024-03-25T08:31:29;14.00;84.60
3406;DHT22;10008;48.682;9.016;2024-03-25T08:33:55;13.90;79.60
3406;DHT22;10008;48.682;9.016;2024-03-25T08:36:21;13.40;81.80
3406;DHT22;10008;48.682;9.016;2024-03-25T08:38:46;13.40;83.70
3406;DHT22;10008;48.682;9.016;2024-03-25T08:41:12;13.60;85.50
3406;DHT22;10008;48.682;9.016;2024-03-25T08:43:38;13.70;80.70
3406;DHT22;10008;48.682;9.016;2024-03-25T08:46:03;14.60;82.40
3406;DHT22;10008;48.682;9.016;2024-03-25T08:48:29;14.90;77.60
3406;DHT22;10008;48.682;9.016;2024-03-25T08:50:55;14.50;75.30
3406;DHT22;10008;48.682;9.016;2024-03-25T08:53:21;15.50;78.80
3406;DHT22;10008;48.682;9.016;2024-03-25T08:55:47;15.60;75.40
3406;DHT22;10008;48.682;9.016;2024-03-25T08:58:14;16.00;74.00
3406;DHT22;10008;48.682;9.016;2024-03-25T09:00:40;15.40;74.50
3406;DHT22;10008;48.682;9.016;2024-03-25T09:03:05;14.70;75.30
3406;DHT22;10008;48.682;9.016;2024-03-25T09:05:31;15.00;77.20
3406;DHT22;10008;48.682;9.016;2024-03-25T09:07:57;14.10;74.10
3406;DHT22;10008;48.682;9.016;2024-03-25T09:10:24;13.90;79.90
3406;DHT22;10008;48.682;9.016;2024-03-25T09:13:09;14.00;77.20
3406;DHT22;10008;48.682;9.016;2024-03-25T09:15:35;13.40;73.70
3406;DHT22;10008;48.682;9.016;2024-03-25T09:18:01;12.80;79.70
3406;DHT22;10008;48.682;9.016;2024-03-25T09:20:26;12.40;83.10
3406;DHT22;10008;48.682;9.016;2024-03-25T09:22:52;11.90;81.50
3406;DHT22;10008;48.682;9.016;2024-03-25T09:25:18;11.00;81.90
3406;DHT22;10008;48.682;9.016;2024-03-25T09:27:48;10.50;82.00
3406;DHT22;10008;48.682;9.016;2024-03-25T09:30:14;10.10;85.30
3406;DHT22;10008;48.682;9.016;2024-03-25T09:32:40;9.90;90.90
3406;DHT22;10008;48.682;9.016;2024-03-25T09:35:07;9.60;87.20
3406;DHT22;10008;48.682;9.016;2024-03-25T09:37:33;10.10;91.10
3406;DHT22;10008;48.682;9.016;2024-03-25T09:39:59;10.20;91.00
3406;DHT22;10008;48.682;9.016;2024-03-25T09:42:33;10.00;88.00
3406;DHT22;10008;48.682;9.016;2024-03-25T09:44:59;10.30;88.90
3406;DHT22;10008;48.682;9.016;2024-03-25T09:47:26;10.30;91.70
3406;DHT22;10008;48.682;9.016;2024-03-25T09:49:52;10.40;90.70
3406;DHT22;10008;48.682;9.016;2024-03-25T09:52:19;10.70;86.80
3406;DHT22;10008;48.682;9.016;2024-03-25T09:54:45;10.90;87.20
3406;DHT22;10008;48.682;9.016;2024-03-25T09:57:12;10.60;85.00
3406;DHT22;10008;48.682;9.016;2024-03-25T09:59:40;10.60;82.90
3406;DHT22;10008;48.682;9.016;2024-03-25T10:02:07;11.80;88.00
3406;DHT22;10008;48.682;9.016;2024-03-25T10:04:39;13.40;79.90
3406;DHT22;10008;48.682;9.016;2024-03-25T10:07:08;15.30;72.90
3406;DHT22;10008;48.682;9.016;2024-03-25T10:09:34;15.70;69.50
3406;DHT22;10008;48.682;9.016;2024-03-25T10:12:00;14.90;64.60
3406;DHT22;10008;48.682;9.016;2024-03-25T10:14:25;13.80;70.50
3406;DHT22;10008;48.682;9.016;2024-03-25T10:16:51;13.70;73.50
3406;DHT22;10008;48.682;9.016;2024-03-25T10:19:17;13.20;72.40
3406;DHT22;10008;48.682;9.016;2024-03-25T10:21:42;12.80;70.20
3406;DHT22;10008;48.682;9.016;2024-03-25T10:24:08;12.60;71.70
3406;DHT22;10008;48.682;9.016;2024-03-25T10:26:34;12.50;72.10
3406;DHT22;10008;48.682;9.016;2024-03-25T10:29:05;12.40;74.00
3406;DHT22;10008;48.682;9.016;2024-03-25T10:31:36;12.00;72.40
3406;DHT22;10008;48.682;9.016;2024-03-25T10:34:02;11.50;72.90
3406;DHT22;10008;48.682;9.016;2024-03-25T10:36:28;11.60;75.40
3406;DHT22;10008;48.682;9.016;2024-03-25T10:38:55;11.30;74.20
3406;DHT22;10008;48.682;9.016;2024-03-25T10:41:21;11.20;74.50
3406;DHT22;10008;48.682;9.016;2024-03-25T10:43:48;11.10;73.20
3406;DHT22;10008;48.682;9.016;2024-03-25T10:46:22;10.80;72.50
3406;DHT22;10008;48.682;9.016;2024-03-25T10:48:53;10.70;74.50
3406;DHT22;10008;48.682;9.016;2024-03-25T10:51:21;10.70;81.80
3406;DHT22;10008;48.682;9.016;2024-03-25T10:53:51;10.90;84.00
3406;DHT22;10008;48.682;9.016;2024-03-25T10:56:20;11.10;82.40
3406;DHT22;10008;48.682;9.016;2024-03-25T10:58:48;11.30;80.00
3406;DHT22;10008;48.682;9.016;2024-03-25T11:01:19;11.40;78.70
3406;DHT22;10008;48.682;9.016;2024-03-25T11:03:49;11.30;76.70
3406;DHT22;10008;48.682;9.016;2024-03-25T11:06:15;11.00;76.30
3406;DHT22;10008;48.682;9.016;2024-03-25T11:08:43;10.90;78.20
3406;DHT22;10008;48.682;9.016;2024-03-25T11:11:13;10.90;77.80
3406;DHT22;10008;48.682;9.016;2024-03-25T11:13:39;10.80;78.60
3406;DHT22;10008;48.682;9.016;2024-03-25T11:16:06;10.80;78.50
3406;DHT22;10008;48.682;9.016;2024-03-25T11:18:33;10.80;76.90
3406;DHT22;10008;48.682;9.016;2024-03-25T11:23:36;10.90;75.50
3406;DHT22;10008;48.682;9.016;2024-03-25T11:26:02;10.90;75.60
3406;DHT22;10008;48.682;9.016;2024-03-25T11:28:28;11.00;74.80
3406;DHT22;10008;48.682;9.016;2024-03-25T11:30:55;11.10;74.30
3406;DHT22;10008;48.682;9.016;2024-03-25T11:33:21;11.20;73.70
3406;DHT22;10008;48.682;9.016;2024-03-25T11:35:49;11.20;75.70
3406;DHT22;10008;48.682;9.016;2024-03-25T11:38:15;11.00;74.20
3406;DHT22;10008;48.682;9.016;2024-03-25T11:40:45;11.00;76.00
3406;DHT22;10008;48.682;9.016;2024-03-25T11:43:18;11.00;74.60
3406;DHT22;10008;48.682;9.016;2024-03-25T11:45:47;11.20;74.70
3406;DHT22;10008;48.682;9.016;2024-03-25T11:48:14;11.30;75.60
3406;DHT22;10008;48.682;9.016;2024-03-25T11:50:40;12.60;70.00
3406;DHT22;10008;48.682;9.016;2024-03-25T11:53:06;14.40;65.70
3406;DHT22;10008;48.682;9.016;2024-03-25T11:55:32;17.00;63.10
3406;DHT22;10008;48.682;9.016;2024-03-25T11:57:58;19.10;57.50
3406;DHT22;10008;48.682;9.016;2024-03-25T12:00:24;20.10;52.00
3406;DHT22;10008;48.682;9.016;2024-03-25T12:02:50;19.70;50.40
3406;DHT22;10008;48.682;9.016;2024-03-25T12:05:18;19.90;50.30
3406;DHT22;10008;48.682;9.016;2024-03-25T12:07:44;20.20;50.70
3406;DHT22;10008;48.682;9.016;2024-03-25T12:10:10;20.20;48.90
3406;DHT22;10008;48.682;9.016;2024-03-25T12:12:55;19.00;48.00
3406;DHT22;10008;48.682;9.016;2024-03-25T12:15:21;19.30;49.90
3406;DHT22;10008;48.682;9.016;2024-03-25T12:17:47;19.40;50.80
3406;DHT22;10008;48.682;9.016;2024-03-25T12:20:13;19.60;50.30
3406;DHT22;10008;48.682;9.016;2024-03-25T12:22:41;19.20;49.40
3406;DHT22;10008;48.682;9.016;2024-03-25T12:25:08;17.80;50.10
3406;DHT22;10008;48.682;9.016;2024-03-25T12:27:37;16.30;52.70
3406;DHT22;10008;48.682;9.016;2024-03-25T12:30:08;15.00;56.20
3406;DHT22;10008;48.682;9.016;2024-03-25T12:32:38;14.10;56.70
3406;DHT22;10008;48.682;9.016;2024-03-25T12:35:14;13.90;59.30
3406;DHT22;10008;48.682;9.016;2024-03-25T12:37:47;14.80;61.50
3406;DHT22;10008;48.682;9.016;2024-03-25T12:40:25;16.20;56.10
3406;DHT22;10008;48.682;9.016;2024-03-25T12:42:54;17.10;55.20
3406;DHT22;10008;48.682;9.016;2024-03-25T12:45:21;17.60;54.30
3406;DHT22;10008;48.682;9.016;2024-03-25T12:47:47;17.70;52.90
3406;DHT22;10008;48.682;9.016;2024-03-25T12:50:13;18.00;51.90
3406;DHT22;10008;48.682;9.016;2024-03-25T12:52:39;18.30;55.30
3406;DHT22;10008;48.682;9.016;2024-03-25T12:55:04;18.60;52.80
3406;DHT22;10008;48.682;9.016;2024-03-25T12:57:30;18.30;49.80
3406;DHT22;10008;48.682;9.016;2024-03-25T12:59:56;16.70;51.00
3406;DHT22;10008;48.682;9.016;2024-03-25T13:02:21;16.20;53.20
3406;DHT22;10008;48.682;9.016;2024-03-25T13:04:47;16.70;52.70
3406;DHT22;10008;48.682;9.016;2024-03-25T13:07:13;17.40;51.60
3406;DHT22;10008;48.682;9.016;2024-03-25T13:09:38;17.70;50.20
3406;DHT22;10008;48.682;9.016;2024-03-25T13:12:04;18.30;50.70
3406;DHT22;10008;48.682;9.016;2024-03-25T13:14:30;18.40;48.80
3406;DHT22;10008;48.682;9.016;2024-03-25T13:16:56;17.80;48.20
3406;DHT22;10008;48.682;9.016;2024-03-25T13:19:22;17.30;48.30
3406;DHT22;10008;48.682;9.016;2024-03-25T13:21:48;17.60;48.70
3406;DHT22;10008;48.682;9.016;2024-03-25T13:24:14;17.90;47.70
3406;DHT22;10008;48.682;9.016;2024-03-25T13:26:40;18.00;49.40
3406;DHT22;10008;48.682;9.016;2024-03-25T13:29:06;18.50;46.80
3406;DHT22;10008;48.682;9.016;2024-03-25T13:31:33;18.20;44.70
3406;DHT22;10008;48.682;9.016;2024-03-25T13:33:59;18.10;44.10
3406;DHT22;10008;48.682;9.016;2024-03-25T13:36:25;18.20;44.00
3406;DHT22;10008;48.682;9.016;2024-03-25T13:38:51;18.10;44.20
3406;DHT22;10008;48.682;9.016;2024-03-25T13:41:17;18.20;45.50
3406;DHT22;10008;48.682;9.016;2024-03-25T13:43:48;18.20;44.90
3406;DHT22;10008;48.682;9.016;2024-03-25T13:46:13;18.20;46.70
3406;DHT22;10008;48.682;9.016;2024-03-25T13:48:40;18.40;46.10
3406;DHT22;10008;48.682;9.016;2024-03-25T13:51:05;18.60;46.30
3406;DHT22;10008;48.682;9.016;2024-03-25T13:53:31;18.30;48.00
3406;DHT22;10008;48.682;9.016;2024-03-25T13:55:58;18.60;49.50
3406;DHT22;10008;48.682;9.016;2024-03-25T13:58:25;18.50;45.30
3406;DHT22;10008;48.682;9.016;2024-03-25T14:00:51;18.10;45.50
3406;DHT22;10008;48.682;9.016;2024-03-25T14:03:17;17.70;46.20
3406;DHT22;10008;48.682;9.016;2024-03-25T14:05:43;17.50;47.80
3406;DHT22;10008;48.682;9.016;2024-03-25T14:08:09;17.40;48.10
3406;DHT22;10008;48.682;9.016;2024-03-25T14:10:35;17.70;48.40
3406;DHT22;10008;48.682;9.016;2024-03-25T14:13:01;17.10;47.20
3406;DHT22;10008;48.682;9.016;2024-03-25T14:15:27;17.00;49.40
3406;DHT22;10008;48.682;9.016;2024-03-25T14:17:53;17.30;49.60
3406;DHT22;10008;48.682;9.016;2024-03-25T14:20:18;17.40;48.30
3406;DHT22;10008;48.682;9.016;2024-03-25T14:22:44;17.40;49.30
3406;DHT22;10008;48.682;9.016;2024-03-25T14:25:10;17.50;48.80
3406;DHT22;10008;48.682;9.016;2024-03-25T14:27:35;17.50;49.00
3406;DHT22;10008;48.682;9.016;2024-03-25T14:30:01;17.20;48.50
3406;DHT22;10008;48.682;9.016;2024-03-25T14:32:27;16.90;49.30
3406;DHT22;10008;48.682;9.016;2024-03-25T14:34:53;16.60;49.20
3406;DHT22;10008;48.682;9.016;2024-03-25T14:37:18;16.30;49.70
3406;DHT22;10008;48.682;9.016;2024-03-25T14:39:46;16.30;49.80
3406;DHT22;10008;48.682;9.016;2024-03-25T14:42:11;16.10;49.80
3406;DHT22;10008;48.682;9.016;2024-03-25T14:44:37;15.80;49.70
3406;DHT22;10008;48.682;9.016;2024-03-25T14:47:03;15.60;50.50
3406;DHT22;10008;48.682;9.016;2024-03-25T14:49:30;15.80;52.50
3406;DHT22;10008;48.682;9.016;2024-03-25T14:51:56;16.10;52.50
3406;DHT22;10008;48.682;9.016;2024-03-25T14:54:22;16.50;51.30
3406;DHT22;10008;48.682;9.016;2024-03-25T14:56:47;16.30;51.20
3406;DHT22;10008;48.682;9.016;2024-03-25T14:59:14;16.30;51.80
3406;DHT22;10008;48.682;9.016;2024-03-25T15:01:40;16.30;51.30
3406;DHT22;10008;48.682;9.016;2024-03-25T15:04:06;16.10;50.90
3406;DHT22;10008;48.682;9.016;2024-03-25T15:06:33;16.00;51.60
3406;DHT22;10008;48.682;9.016;2024-03-25T15:08:59;15.90;52.00
3406;DHT22;10008;48.682;9.016;2024-03-25T15:11:25;15.70;52.30
3406;DHT22;10008;48.682;9.016;2024-03-25T15:13:51;15.60;52.30
3406;DHT22;10008;48.682;9.016;2024-03-25T15:16:17;15.30;52.00
3406;DHT22;10008;48.682;9.016;2024-03-25T15:18:43;15.20;53.20
3406;DHT22;10008;48.682;9.016;2024-03-25T15:21:09;15.20;52.90
3406;DHT22;10008;48.682;9.016;2024-03-25T15:23:35;15.10;53.20
3406;DHT22;10008;48.682;9.016;2024-03-25T15:26:01;15.20;53.30
3406;DHT22;10008;48.682;9.016;2024-03-25T15:28:26;15.10;52.50
3406;DHT22;10008;48.682;9.016;2024-03-25T15:30:55;15.10;52.20
3406;DHT22;10008;48.682;9.016;2024-03-25T15:33:22;15.10;51.70
3406;DHT22;10008;48.682;9.016;2024-03-25T15:35:48;14.90;52.10
3406;DHT22;10008;48.682;9.016;2024-03-25T15:38:15;14.60;52.10
3406;DHT22;10008;48.682;9.016;2024-03-25T15:40:41;14.50;54.10
3406;DHT22;10008;48.682;9.016;2024-03-25T15:43:07;14.20;53.40
3406;DHT22;10008;48.682;9.016;2024-03-25T15:45:33;14.00;54.10
3406;DHT22;10008;48.682;9.016;2024-03-25T15:47:58;14.00;54.20
3406;DHT22;10008;48.682;9.016;2024-03-25T15:50:25;14.20;56.20
3406;DHT22;10008;48.682;9.016;2024-03-25T15:52:51;14.40;54.70